Time;durP1;ratioP1;P1;durP2;ratioP2;P2;SDS_P1;SDS_P2;PMS_P1;PMS_P2;Temp;Humidity;BMP_temperature;BMP_pressure;BME280_temperature;BME280_humidity;BME280_pressure;Samples;Min_cycle;Max_cycle;Signal;HPM_P1;HPM_P2
2022/04/26 03:38:03;;;;;;;0.40;0.40;;;4.40;99.90;;;;;;5067575;28;20494;-83
2022/04/26 03:40:28;;;;;;;0.40;0.40;;;4.30;99.90;;;;;;5072990;28;20443;-83
2022/04/26 03:42:54;;;;;;;0.40;0.40;;;4.20;99.90;;;;;;5076038;28;20234;-84
2022/04/26 03:45:20;;;;;;;0.30;0.30;;;4.40;99.90;;;;;;5067361;28;20224;-83
2022/04/26 03:47:45;;;;;;;0.40;0.40;;;4.20;99.90;;;;;;5056096;28;20270;-83
2022/04/26 03:50:10;;;;;;;0.40;0.40;;;4.20;99.90;;;;;;5070303;28;20243;-83
2022/04/26 03:52:40;;;;;;;0.40;0.40;;;4.10;99.90;;;;;;5070499;28;20239;-83
2022/04/26 03:55:06;;;;;;;0.50;0.50;;;4.00;99.90;;;;;;5073510;28;20189;-82
2022/04/26 03:57:32;;;;;;;0.40;0.40;;;3.90;99.90;;;;;;5072043;28;20439;-82
2022/04/26 03:59:57;;;;;;;0.30;0.30;;;3.90;99.90;;;;;;5080711;28;20458;-82
2022/04/26 04:02:23;;;;;;;0.47;0.47;;;3.80;99.90;;;;;;5074156;28;20183;-82
2022/04/26 04:04:49;;;;;;;0.40;0.40;;;3.80;99.90;;;;;;5084095;28;20243;-82
2022/04/26 04:07:15;;;;;;;0.40;0.40;;;3.80;99.90;;;;;;5085560;28;20173;-84
2022/04/26 04:09:40;;;;;;;0.50;0.50;;;3.80;99.90;;;;;;5084851;28;20443;-83
2022/04/26 04:12:06;;;;;;;0.40;0.40;;;3.80;99.90;;;;;;5072876;28;20721;-83
2022/04/26 04:14:32;;;;;;;0.50;0.50;;;3.80;99.90;;;;;;5078036;28;20190;-81
2022/04/26 04:16:57;;;;;;;0.40;0.40;;;3.80;99.90;;;;;;5066151;28;20513;-81
2022/04/26 04:19:25;;;;;;;0.50;0.50;;;3.70;99.90;;;;;;5067300;28;20289;-82
2022/04/26 04:21:51;;;;;;;0.40;0.40;;;3.70;99.90;;;;;;5071535;28;20189;-82
2022/04/26 04:24:18;;;;;;;0.47;0.47;;;3.70;99.90;;;;;;5069295;28;20968;-82
2022/04/26 04:26:44;;;;;;;0.40;0.40;;;3.70;99.90;;;;;;5064137;28;20472;-83
2022/04/26 04:29:10;;;;;;;0.50;0.50;;;3.70;99.90;;;;;;5066688;28;20952;-82
2022/04/26 04:31:36;;;;;;;0.40;0.40;;;3.80;99.90;;;;;;5075657;28;20439;-83
2022/04/26 04:34:02;;;;;;;0.50;0.50;;;3.80;99.90;;;;;;5075406;28;20464;-83
2022/04/26 04:36:28;;;;;;;0.50;0.50;;;3.80;99.90;;;;;;5068758;28;20189;-83
2022/04/26 04:38:55;;;;;;;0.50;0.50;;;3.70;99.90;;;;;;5071208;28;20916;-82
2022/04/26 04:41:20;;;;;;;0.50;0.50;;;3.80;99.90;;;;;;5065624;28;20459;-82
2022/04/26 04:43:46;;;;;;;0.47;0.47;;;3.90;99.90;;;;;;5067166;28;20951;-82
2022/04/26 04:46:12;;;;;;;0.40;0.40;;;3.80;99.90;;;;;;5065588;28;20194;-82
2022/04/26 04:48:37;;;;;;;0.30;0.30;;;3.90;99.90;;;;;;5068694;28;20197;-83
2022/04/26 04:51:03;;;;;;;0.40;0.40;;;4.00;99.90;;;;;;5068407;28;20211;-83
2022/04/26 04:53:28;;;;;;;0.40;0.40;;;4.00;99.90;;;;;;5064209;28;20200;-83
2022/04/26 04:55:54;;;;;;;0.40;0.40;;;4.00;99.90;;;;;;5065626;28;20595;-83
2022/04/26 04:58:19;;;;;;;0.50;0.50;;;4.10;99.90;;;;;;5068467;28;20182;-83
2022/04/26 05:00:45;;;;;;;0.40;0.40;;;4.10;99.90;;;;;;5060682;28;20731;-83
2022/04/26 05:03:10;;;;;;;0.50;0.50;;;4.30;99.90;;;;;;5062113;28;20186;-83
2022/04/26 05:05:36;;;;;;;0.30;0.30;;;4.30;99.90;;;;;;5082881;28;20197;-83
2022/04/26 05:08:02;;;;;;;0.40;0.40;;;4.30;99.90;;;;;;5075510;28;20186;-83
2022/04/26 05:10:30;;;;;;;0.40;0.40;;;4.40;99.90;;;;;;5070011;28;20199;-83
2022/04/26 05:12:55;;;;;;;0.40;0.40;;;4.40;99.90;;;;;;5069278;28;20435;-82
2022/04/26 05:15:21;;;;;;;0.40;0.40;;;4.50;99.90;;;;;;5072493;28;20443;-83
2022/04/26 05:17:46;;;;;;;0.33;0.33;;;4.60;99.90;;;;;;5052628;28;20189;-82
2022/04/26 05:20:12;;;;;;;0.40;0.40;;;4.70;99.90;;;;;;5076743;28;20275;-83
2022/04/26 05:25:22;;;;;;;0.40;0.40;;;5.00;99.90;;;;;;5072313;28;20934;-82
2022/04/26 05:27:48;;;;;;;0.40;0.40;;;5.10;99.90;;;;;;5083373;28;20442;-81
2022/04/26 05:30:13;;;;;;;0.40;0.40;;;5.20;99.90;;;;;;5068525;28;20429;-82
2022/04/26 05:32:39;;;;;;;0.40;0.40;;;5.30;99.90;;;;;;5074003;28;20261;-82
2022/04/26 05:35:06;;;;;;;0.50;0.50;;;5.60;99.90;;;;;;5066826;28;20227;-82
2022/04/26 05:37:32;;;;;;;0.40;0.40;;;5.70;99.90;;;;;;5060995;28;20906;-82
2022/04/26 05:40:02;;;;;;;0.30;0.30;;;5.90;99.90;;;;;;5071402;28;20448;-83
2022/04/26 05:42:28;;;;;;;0.30;0.30;;;6.10;99.90;;;;;;5057089;28;20437;-84
2022/04/26 05:44:53;;;;;;;0.30;0.30;;;6.40;99.90;;;;;;5056739;28;20490;-84
2022/04/26 05:47:19;;;;;;;0.30;0.30;;;6.50;99.90;;;;;;5069411;28;20413;-84
2022/04/26 05:49:45;;;;;;;0.30;0.30;;;6.60;99.90;;;;;;5067317;28;20598;-84
2022/04/26 05:52:10;;;;;;;0.40;0.40;;;6.70;99.90;;;;;;5059841;28;20186;-84
2022/04/26 05:54:36;;;;;;;0.30;0.30;;;6.80;99.90;;;;;;5066248;28;20189;-83
2022/04/26 05:57:01;;;;;;;0.30;0.30;;;7.00;99.90;;;;;;5077976;28;20246;-83
2022/04/26 05:59:27;;;;;;;0.30;0.30;;;7.10;99.90;;;;;;5069086;28;20274;-83
2022/04/26 06:01:53;;;;;;;0.30;0.30;;;7.30;99.90;;;;;;5063505;28;20606;-82
2022/04/26 06:04:19;;;;;;;0.30;0.30;;;7.40;99.90;;;;;;5063021;28;20987;-82
2022/04/26 06:06:45;;;;;;;0.30;0.30;;;7.50;99.90;;;;;;5071413;28;20192;-83
2022/04/26 06:09:13;;;;;;;0.30;0.30;;;7.70;99.90;;;;;;5067210;28;20190;-82
2022/04/26 06:11:39;;;;;;;0.30;0.30;;;7.90;99.90;;;;;;5085780;28;20427;-83
2022/04/26 06:14:08;;;;;;;0.30;0.30;;;8.00;99.90;;;;;;5064200;28;20510;-83
2022/04/26 06:16:33;;;;;;;0.23;0.23;;;8.10;99.90;;;;;;5075107;28;20181;-83
2022/04/26 06:18:59;;;;;;;0.20;0.20;;;8.20;99.90;;;;;;5065630;28;20473;-83
2022/04/26 06:21:25;;;;;;;0.30;0.30;;;8.20;99.90;;;;;;5073772;28;20268;-82
2022/04/26 06:23:50;;;;;;;0.30;0.30;;;8.30;99.90;;;;;;5060914;28;20212;-83
2022/04/26 06:26:16;;;;;;;0.20;0.20;;;8.40;99.90;;;;;;5060125;28;20189;-82
2022/04/26 06:28:41;;;;;;;0.30;0.30;;;8.40;99.90;;;;;;5065446;28;20713;-82
2022/04/26 06:31:06;;;;;;;0.30;0.30;;;8.40;99.90;;;;;;5069627;28;20898;-82
2022/04/26 06:33:34;;;;;;;0.33;0.33;;;8.60;99.90;;;;;;5071554;28;20190;-82
2022/04/26 06:36:00;;;;;;;0.50;0.50;;;8.70;99.90;;;;;;5068560;28;20178;-80
2022/04/26 06:38:26;;;;;;;0.47;0.47;;;9.00;99.90;;;;;;5074617;28;20438;-83
2022/04/26 06:40:52;;;;;;;0.30;0.30;;;9.20;99.90;;;;;;5077197;28;20888;-81
2022/04/26 06:43:19;;;;;;;0.40;0.40;;;9.30;99.90;;;;;;5068988;28;20494;-82
2022/04/26 06:45:46;;;;;;;0.40;0.40;;;9.30;99.90;;;;;;5073545;28;20478;-81
2022/04/26 06:48:13;;;;;;;0.40;0.40;;;9.40;99.90;;;;;;5069804;28;20431;-84
2022/04/26 06:50:39;;;;;;;0.40;0.40;;;9.30;99.90;;;;;;5059840;28;20940;-85
2022/04/26 06:53:05;;;;;;;0.30;0.30;;;9.60;99.90;;;;;;5071703;28;20462;-85
2022/04/26 06:55:31;;;;;;;0.30;0.30;;;9.50;99.90;;;;;;5069643;28;20539;-84
2022/04/26 06:57:57;;;;;;;0.50;0.50;;;9.70;99.90;;;;;;5069345;28;21019;-85
2022/04/26 07:00:23;;;;;;;0.30;0.30;;;9.60;99.90;;;;;;5063440;28;20436;-85
2022/04/26 07:02:49;;;;;;;0.30;0.30;;;9.70;99.90;;;;;;5077142;28;20439;-85
2022/04/26 07:05:15;;;;;;;0.30;0.30;;;9.80;99.90;;;;;;5068663;28;20222;-85
2022/04/26 07:07:42;;;;;;;0.30;0.30;;;10.00;99.90;;;;;;5053422;28;20248;-85
2022/04/26 07:10:09;;;;;;;0.30;0.30;;;10.10;99.90;;;;;;5067911;28;20451;-86
2022/04/26 07:12:35;;;;;;;0.30;0.30;;;10.40;99.90;;;;;;5060831;28;20463;-86
2022/04/26 07:15:00;;;;;;;0.30;0.30;;;10.40;99.90;;;;;;5059850;28;20516;-87
2022/04/26 07:17:26;;;;;;;0.30;0.30;;;10.40;99.90;;;;;;5064129;28;20178;-87
2022/04/26 07:19:52;;;;;;;0.30;0.30;;;10.60;99.90;;;;;;5066232;28;20678;-86
2022/04/26 07:22:17;;;;;;;0.40;0.40;;;10.70;99.90;;;;;;5051550;28;20190;-86
2022/04/26 07:24:44;;;;;;;0.20;0.20;;;10.80;99.90;;;;;;5060924;28;21060;-87
2022/04/26 07:27:10;;;;;;;0.30;0.30;;;10.80;99.90;;;;;;5071251;28;20182;-87
2022/04/26 07:29:36;;;;;;;0.20;0.20;;;10.70;99.90;;;;;;5066636;28;20956;-86
2022/04/26 07:32:02;;;;;;;0.20;0.20;;;10.80;99.90;;;;;;5059568;28;20445;-86
2022/04/26 07:34:29;;;;;;;0.20;0.20;;;11.10;99.90;;;;;;5059724;28;20480;-86
2022/04/26 07:36:59;;;;;;;0.20;0.20;;;11.30;99.90;;;;;;5059070;28;20958;-86
2022/04/26 07:39:25;;;;;;;0.20;0.20;;;11.40;99.90;;;;;;5062046;28;20456;-87
2022/04/26 07:41:51;;;;;;;0.20;0.20;;;11.70;99.90;;;;;;5071808;28;20452;-87
2022/04/26 07:44:17;;;;;;;0.20;0.20;;;11.60;99.90;;;;;;5060277;28;20552;-86
2022/04/26 07:46:45;;;;;;;0.20;0.20;;;11.30;99.90;;;;;;5059505;28;20436;-86
2022/04/26 07:49:11;;;;;;;0.20;0.20;;;11.40;99.90;;;;;;5069976;28;20491;-85
2022/04/26 07:51:37;;;;;;;0.20;0.20;;;11.60;99.90;;;;;;5072202;28;20423;-87
2022/04/26 07:54:03;;;;;;;0.20;0.20;;;11.70;99.90;;;;;;5072159;28;20455;-87
2022/04/26 07:56:28;;;;;;;0.20;0.20;;;11.90;99.90;;;;;;5066298;28;20197;-87
2022/04/26 07:58:55;;;;;;;0.30;0.30;;;12.00;99.90;;;;;;5056479;28;20665;-87
2022/04/26 08:01:20;;;;;;;0.20;0.20;;;12.20;99.90;;;;;;5054774;28;20664;-87
2022/04/26 08:03:46;;;;;;;0.20;0.20;;;12.20;99.90;;;;;;5055996;28;20472;-86
2022/04/26 08:06:11;;;;;;;0.20;0.20;;;12.60;99.90;;;;;;5067910;28;20661;-87
2022/04/26 08:08:39;;;;;;;0.20;0.20;;;12.80;99.90;;;;;;5069625;28;20206;-86
2022/04/26 08:11:05;;;;;;;0.10;0.10;;;13.10;99.90;;;;;;5071924;28;20178;-87
2022/04/26 08:13:32;;;;;;;0.10;0.10;;;12.80;99.90;;;;;;5059514;28;20449;-87
2022/04/26 08:15:58;;;;;;;0.10;0.10;;;13.00;99.90;;;;;;5051822;28;20321;-87
2022/04/26 08:18:23;;;;;;;0.10;0.10;;;13.40;99.90;;;;;;5051743;28;20568;-86
2022/04/26 08:20:49;;;;;;;0.10;0.10;;;13.50;99.90;;;;;;5058229;28;20745;-87
2022/04/26 08:23:14;;;;;;;0.10;0.10;;;13.40;99.90;;;;;;5070911;28;20189;-86
2022/04/26 08:28:28;;;;;;;0.10;0.10;;;13.30;99.90;;;;;;5051715;28;20650;-86
2022/04/26 08:30:55;;;;;;;0.10;0.10;;;13.50;99.90;;;;;;5050567;28;20520;-88
2022/04/26 08:33:20;;;;;;;0.10;0.10;;;13.60;99.90;;;;;;5051819;28;20771;-87
2022/04/26 08:35:46;;;;;;;0.10;0.10;;;13.70;99.90;;;;;;5057421;28;20525;-88
2022/04/26 08:38:11;;;;;;;0.10;0.10;;;14.00;99.90;;;;;;5071542;28;20248;-87
2022/04/26 08:40:37;;;;;;;0.10;0.10;;;14.30;99.90;;;;;;5071341;28;20178;-87
2022/04/26 08:43:03;;;;;;;0.10;0.10;;;14.20;99.90;;;;;;5066911;28;20190;-87
2022/04/26 08:45:29;;;;;;;0.10;0.10;;;14.50;99.90;;;;;;5066195;28;20194;-86
2022/04/26 08:53:24;;;;;;;0.10;0.10;;;14.60;99.90;;;;;;5067713;28;20501;-87
2022/04/26 08:55:57;;;;;;;0.00;0.00;;;15.00;99.90;;;;;;5062081;28;20483;-87
2022/04/26 08:58:25;;;;;;;0.00;0.00;;;15.00;99.90;;;;;;5068335;28;20308;-86
2022/04/26 09:01:15;;;;;;;0.00;0.00;;;15.00;99.90;;;;;;5062047;28;20448;-91
2022/04/26 09:04:02;;;;;;;0.00;0.00;;;14.90;98.80;;;;;;5070991;28;20459;-91
2022/04/26 09:06:39;;;;;;;0.00;0.00;;;15.40;99.80;;;;;;5071636;28;20490;-93
2022/04/26 09:09:11;;;;;;;0.00;0.00;;;15.80;98.60;;;;;;5068787;28;20424;-93
2022/04/26 09:11:37;;;;;;;0.00;0.00;;;14.20;96.90;;;;;;5073465;28;20449;-91
2022/04/26 09:14:09;;;;;;;0.00;0.00;;;14.20;99.50;;;;;;5066182;28;20530;-91
2022/04/26 09:16:35;;;;;;;0.00;0.00;;;14.80;96.20;;;;;;5068840;28;20458;-91
2022/04/26 09:19:06;;;;;;;0.00;0.00;;;15.20;99.50;;;;;;5073960;28;20489;-92
2022/04/26 09:21:33;;;;;;;0.00;0.00;;;15.00;95.70;;;;;;5073353;28;20421;-92
2022/04/26 09:24:07;;;;;;;0.00;0.00;;;15.50;97.90;;;;;;5071557;28;20833;-92
2022/04/26 09:26:37;;;;;;;0.00;0.00;;;15.70;93.20;;;;;;5067960;28;20455;-91
2022/04/26 09:29:07;;;;;;;0.00;0.00;;;16.20;95.30;;;;;;5070383;28;20443;-94
2022/04/26 09:31:37;;;;;;;0.00;0.00;;;16.30;92.80;;;;;;5072817;28;20947;-91
2022/04/26 09:34:13;;;;;;;0.00;0.00;;;15.60;92.60;;;;;;5070574;28;20451;-93
2022/04/26 09:36:48;;;;;;;0.00;0.00;;;15.90;97.00;;;;;;5069108;28;20504;-93
2022/04/26 09:39:20;;;;;;;0.00;0.00;;;16.90;97.00;;;;;;5074912;28;20511;-94
2022/04/26 09:41:50;;;;;;;0.00;0.00;;;16.60;92.80;;;;;;5070049;28;20451;-94
2022/04/26 09:44:16;;;;;;;0.00;0.00;;;15.30;93.90;;;;;;5067593;28;20483;-92
2022/04/26 09:46:53;;;;;;;0.00;0.00;;;14.60;90.70;;;;;;5058486;28;20812;-90
2022/04/26 09:49:21;;;;;;;0.00;0.00;;;14.30;93.20;;;;;;5061991;28;20454;-91
2022/04/26 09:51:51;;;;;;;0.00;0.00;;;14.40;95.50;;;;;;5068754;28;20444;-91
2022/04/26 09:54:17;;;;;;;0.00;0.00;;;15.50;93.80;;;;;;5052524;28;20452;-92
2022/04/26 09:56:45;;;;;;;0.00;0.00;;;16.10;94.80;;;;;;5069943;28;20448;-93
2022/04/26 09:59:29;;;;;;;0.00;0.00;;;15.80;92.00;;;;;;5070155;28;20192;-93
2022/04/26 10:01:58;;;;;;;0.00;0.00;;;16.60;92.90;;;;;;5071789;28;20516;-93
2022/04/26 10:04:26;;;;;;;0.00;0.00;;;17.30;94.60;;;;;;5069102;28;20479;-93
2022/04/26 10:06:57;;;;;;;0.00;0.00;;;17.10;91.10;;;;;;5072373;28;20427;-91
2022/04/26 10:09:24;;;;;;;0.00;0.00;;;16.00;89.40;;;;;;5063514;28;20468;-89
2022/04/26 10:11:55;;;;;;;0.00;0.00;;;15.00;91.10;;;;;;5077142;28;20446;-89
2022/04/26 10:14:21;;;;;;;0.00;0.00;;;15.20;91.20;;;;;;5054958;28;20477;-89
2022/04/26 10:16:47;;;;;;;0.00;0.00;;;16.00;90.60;;;;;;5063785;28;20513;-92
2022/04/26 10:19:13;;;;;;;0.00;0.00;;;16.60;89.40;;;;;;5069046;28;20491;-93
2022/04/26 10:21:38;;;;;;;0.00;0.00;;;17.70;90.80;;;;;;5074436;28;20897;-93
2022/04/26 10:24:14;;;;;;;0.00;0.00;;;18.00;88.90;;;;;;5056565;28;20213;-91
2022/04/26 10:26:40;;;;;;;0.00;0.00;;;16.80;89.50;;;;;;5067856;28;20197;-94
2022/04/26 10:29:08;;;;;;;0.00;0.00;;;18.40;91.70;;;;;;5069083;28;20442;-91
2022/04/26 10:31:39;;;;;;;0.00;0.00;;;18.70;86.90;;;;;;5056072;28;20437;-94
2022/04/26 10:34:28;;;;;;;0.00;0.00;;;19.00;83.50;;;;;;5069930;28;20477;-95
2022/04/26 10:37:08;;;;;;;0.00;0.00;;;17.40;82.70;;;;;;5070709;28;20448;-96
2022/04/26 10:39:38;;;;;;;0.00;0.00;;;18.60;79.90;;;;;;5065791;28;20425;-96
2022/04/26 10:42:26;;;;;;;0.00;0.00;;;18.90;77.80;;;;;;5083075;28;20443;-97
2022/04/26 10:44:57;;;;;;;0.00;0.00;;;19.30;76.70;;;;;;5091165;28;20479;-97
2022/04/26 10:47:24;;;;;;;0.00;0.00;;;19.50;81.20;;;;;;5082471;28;20440;-97
2022/04/26 10:49:51;;;;;;;0.00;0.00;;;19.30;76.50;;;;;;5087969;28;20852;-96
2022/04/26 10:52:23;;;;;;;0.00;0.00;;;19.60;75.00;;;;;;5079088;28;20932;-95
2022/04/26 10:54:51;;;;;;;0.00;0.00;;;20.80;81.60;;;;;;5063676;28;20424;-96
2022/04/26 10:57:31;;;;;;;0.00;0.00;;;21.10;79.10;;;;;;5063609;28;20523;-96
2022/04/26 11:00:21;;;;;;;0.00;0.00;;;21.00;84.90;;;;;;5072907;28;20447;-96
2022/04/26 11:02:48;;;;;;;0.00;0.00;;;21.90;80.70;;;;;;5064289;28;21005;-96
2022/04/26 11:05:17;;;;;;;0.00;0.00;;;22.20;80.60;;;;;;5070273;28;20481;-94
2022/04/26 11:07:52;;;;;;;0.00;0.00;;;21.00;81.10;;;;;;5072212;28;20479;-96
2022/04/26 11:13:21;;;;;;;0.00;0.00;;;19.60;77.40;;;;;;5071259;28;20489;-96
2022/04/26 11:15:46;;;;;;;0.00;0.00;;;18.60;78.00;;;;;;5070926;28;20448;-93
2022/04/26 11:18:20;;;;;;;0.00;0.00;;;17.80;82.30;;;;;;5073996;28;20472;-93
2022/04/26 11:20:47;;;;;;;0.00;0.00;;;16.80;80.50;;;;;;5074020;28;20212;-94
2022/04/26 11:28:50;;;;;;;0.00;0.00;;;20.40;83.30;;;;;;5071527;28;20459;-94
2022/04/26 11:31:16;;;;;;;0.00;0.00;;;19.70;72.40;;;;;;5076647;28;20420;-94
2022/04/26 11:33:49;;;;;;;0.00;0.00;;;20.00;75.80;;;;;;5075867;28;20186;-96
2022/04/26 11:36:15;;;;;;;0.00;0.00;;;20.80;68.30;;;;;;5076425;28;20162;-95
2022/04/26 11:38:40;;;;;;;0.00;0.00;;;21.10;72.00;;;;;;5070138;28;20445;-93
2022/04/26 11:41:07;;;;;;;0.00;0.00;;;21.30;68.90;;;;;;5054785;28;20189;-94
2022/04/26 11:43:33;;;;;;;0.00;0.00;;;21.90;73.40;;;;;;5065121;28;20218;-96
2022/04/26 11:46:00;;;;;;;0.00;0.00;;;21.10;72.60;;;;;;5073125;28;20524;-94
2022/04/26 11:48:29;;;;;;;0.00;0.00;;;18.20;73.60;;;;;;5072017;28;20444;-93
2022/04/26 11:50:57;;;;;;;0.00;0.00;;;17.70;75.10;;;;;;5072272;28;20455;-93
2022/04/26 11:53:30;;;;;;;0.00;0.00;;;17.70;77.60;;;;;;5075169;28;20473;-96
2022/04/26 11:56:03;;;;;;;0.00;0.00;;;16.40;74.70;;;;;;5056021;28;20471;-94
2022/04/26 11:58:37;;;;;;;0.00;0.00;;;16.30;82.20;;;;;;5062008;28;20440;-93
2022/04/26 12:01:03;;;;;;;0.00;0.00;;;16.60;82.50;;;;;;5054565;28;20440;-91
2022/04/26 12:03:38;;;;;;;0.00;0.00;;;17.50;84.30;;;;;;5079749;28;20455;-93
2022/04/26 12:06:07;;;;;;;0.00;0.00;;;19.40;85.70;;;;;;5074327;28;20463;-95
2022/04/26 12:08:48;;;;;;;0.00;0.00;;;19.60;80.50;;;;;;5077333;28;20454;-94
2022/04/26 12:11:24;;;;;;;0.00;0.00;;;18.90;77.60;;;;;;5073885;28;20506;-93
2022/04/26 12:14:08;;;;;;;0.00;0.00;;;18.10;84.70;;;;;;5070533;28;20475;-93
2022/04/26 12:16:45;;;;;;;0.00;0.00;;;18.70;90.00;;;;;;5072375;28;20436;-91
2022/04/26 12:19:11;;;;;;;0.00;0.00;;;19.60;80.60;;;;;;5070210;28;20467;-89
2022/04/26 12:21:51;;;;;;;0.00;0.00;;;20.60;84.40;;;;;;5071423;28;20509;-90
2022/04/26 12:24:22;;;;;;;0.00;0.00;;;21.40;83.70;;;;;;5063444;28;20578;-90
2022/04/26 12:26:56;;;;;;;0.00;0.00;;;21.70;81.90;;;;;;5072525;28;21058;-89
2022/04/26 12:29:40;;;;;;;0.00;0.00;;;22.30;85.10;;;;;;5069456;28;20444;-90
2022/04/26 12:32:11;;;;;;;0.00;0.00;;;22.30;80.60;;;;;;5064772;28;20504;-90
2022/04/26 12:34:46;;;;;;;0.00;0.00;;;21.20;81.50;;;;;;5062823;28;20440;-90
2022/04/26 12:37:26;;;;;;;0.00;0.00;;;20.90;86.10;;;;;;5069161;28;20475;-89
2022/04/26 12:39:58;;;;;;;0.00;0.00;;;21.30;82.20;;;;;;5050683;28;20535;-91
2022/04/26 12:42:27;;;;;;;0.00;0.00;;;22.00;84.50;;;;;;5055858;28;20520;-91
2022/04/26 12:45:01;;;;;;;0.00;0.00;;;22.30;81.70;;;;;;5059864;28;20535;-92
2022/04/26 12:50:27;;;;;;;0.00;0.00;;;20.70;80.50;;;;;;5054408;28;20592;-91
2022/04/26 12:52:59;;;;;;;0.00;0.00;;;19.60;80.60;;;;;;5072694;28;20412;-93
2022/04/26 12:55:36;;;;;;;0.00;0.00;;;18.70;84.60;;;;;;5072911;28;20397;-92
2022/04/26 12:58:03;;;;;;;0.00;0.00;;;18.10;87.90;;;;;;5073010;28;20434;-92
2022/04/26 13:00:30;;;;;;;0.00;0.00;;;17.50;88.70;;;;;;5072465;28;20862;-93
2022/04/26 13:02:59;;;;;;;0.00;0.00;;;17.40;90.10;;;;;;5070197;28;20909;-92
2022/04/26 13:05:25;;;;;;;0.00;0.00;;;17.10;90.60;;;;;;5066046;28;20477;-90
2022/04/26 13:07:52;;;;;;;0.00;0.00;;;16.80;89.20;;;;;;5065488;28;20481;-90
2022/04/26 13:10:19;;;;;;;0.00;0.00;;;17.10;91.00;;;;;;5058605;28;20191;-91
2022/04/26 13:12:46;;;;;;;0.00;0.00;;;17.60;90.50;;;;;;5065547;28;20535;-90
2022/04/26 13:15:13;;;;;;;0.00;0.00;;;17.70;90.80;;;;;;5072267;28;20447;-89
2022/04/26 13:17:39;;;;;;;0.00;0.00;;;18.50;90.10;;;;;;5069667;28;20424;-91
2022/04/26 13:20:06;;;;;;;0.00;0.00;;;18.00;87.00;;;;;;5071196;28;20513;-90
2022/04/26 13:22:35;;;;;;;0.00;0.00;;;17.40;88.30;;;;;;5070853;28;21031;-90
2022/04/26 13:25:04;;;;;;;0.00;0.00;;;17.20;90.30;;;;;;5069599;28;20515;-89
2022/04/26 13:27:31;;;;;;;0.00;0.00;;;16.90;89.30;;;;;;5066385;28;20521;-90
2022/04/26 13:29:57;;;;;;;0.00;0.00;;;17.00;90.40;;;;;;5051272;28;20467;-91
2022/04/26 13:32:23;;;;;;;0.00;0.00;;;17.30;91.40;;;;;;5055812;28;20445;-91
2022/04/26 13:34:50;;;;;;;0.00;0.00;;;19.10;90.10;;;;;;5050444;28;20425;-89
2022/04/26 13:37:17;;;;;;;0.00;0.00;;;19.00;87.00;;;;;;5065665;28;20527;-90
2022/04/26 13:39:45;;;;;;;0.00;0.00;;;18.30;87.50;;;;;;5068478;28;20456;-90
2022/04/26 13:42:12;;;;;;;0.00;0.00;;;17.60;89.60;;;;;;5061030;28;20433;-89
2022/04/26 13:44:38;;;;;;;0.00;0.00;;;17.20;90.50;;;;;;5060416;28;21244;-89
2022/04/26 13:47:06;;;;;;;0.00;0.00;;;16.80;89.80;;;;;;5066357;28;20519;-89
2022/04/26 13:49:34;;;;;;;0.00;0.00;;;16.50;90.90;;;;;;5069134;28;20528;-90
2022/04/26 13:52:00;;;;;;;0.00;0.00;;;16.60;91.10;;;;;;5064275;28;20520;-90
2022/04/26 13:54:27;;;;;;;0.00;0.00;;;16.40;91.70;;;;;;5062058;28;20437;-88
2022/04/26 13:56:54;;;;;;;0.00;0.00;;;16.50;91.40;;;;;;5068880;28;20463;-90
2022/04/26 13:59:19;;;;;;;0.00;0.00;;;16.70;93.10;;;;;;5069817;28;20511;-90
2022/04/26 14:01:45;;;;;;;0.00;0.00;;;17.00;92.80;;;;;;5061488;28;20562;-90
2022/04/26 14:04:10;;;;;;;0.00;0.00;;;16.60;91.30;;;;;;5065764;28;20202;-90
2022/04/26 14:06:36;;;;;;;0.00;0.00;;;16.40;91.60;;;;;;5068513;28;20730;-90
2022/04/26 14:09:02;;;;;;;0.00;0.00;;;16.30;92.30;;;;;;5069842;28;20191;-89
2022/04/26 14:11:27;;;;;;;0.00;0.00;;;16.30;92.70;;;;;;5064162;28;20710;-90
2022/04/26 14:22:05;;;;;;;0.00;0.00;;;15.60;90.50;;;;;;5066804;28;20482;-89
2022/04/26 14:24:30;;;;;;;0.00;0.00;;;15.90;91.40;;;;;;5053318;28;20519;-87
2022/04/26 14:26:57;;;;;;;0.00;0.00;;;16.20;91.90;;;;;;5056917;28;20189;-87
2022/04/26 14:29:23;;;;;;;0.00;0.00;;;16.70;91.70;;;;;;5065841;28;20235;-85
2022/04/26 14:31:51;;;;;;;0.00;0.00;;;16.90;86.00;;;;;;5057413;28;20448;-87
2022/04/26 14:34:17;;;;;;;0.00;0.00;;;17.80;85.10;;;;;;5066286;28;20191;-86
2022/04/26 14:36:42;;;;;;;0.00;0.00;;;18.30;84.20;;;;;;5069636;28;20440;-86
2022/04/26 14:39:08;;;;;;;0.00;0.00;;;17.80;80.50;;;;;;5064955;28;20189;-84
2022/04/26 14:41:34;;;;;;;0.00;0.00;;;17.50;83.50;;;;;;5067868;28;20197;-86
2022/04/26 14:43:59;;;;;;;0.00;0.00;;;17.50;84.00;;;;;;5062124;28;20697;-86
2022/04/26 14:46:28;;;;;;;0.00;0.00;;;17.70;85.70;;;;;;5069238;28;20444;-86
2022/04/26 14:48:54;;;;;;;0.00;0.00;;;17.90;83.10;;;;;;5073624;28;20685;-85
2022/04/26 14:51:19;;;;;;;0.00;0.00;;;17.90;80.10;;;;;;5063209;28;20452;-85
2022/04/26 14:53:45;;;;;;;0.00;0.00;;;18.30;83.10;;;;;;5070923;28;20194;-85
2022/04/26 14:56:10;;;;;;;0.00;0.00;;;18.40;82.70;;;;;;5068153;28;20596;-85
2022/04/26 14:58:36;;;;;;;0.00;0.00;;;18.00;78.20;;;;;;5073116;28;20182;-85
2022/04/26 15:01:02;;;;;;;0.00;0.00;;;17.70;81.10;;;;;;5069846;28;20273;-85
2022/04/26 15:03:30;;;;;;;0.00;0.00;;;17.90;84.50;;;;;;5070980;28;20192;-86
2022/04/26 15:05:58;;;;;;;0.00;0.00;;;17.80;83.10;;;;;;5066106;28;20453;-85
2022/04/26 15:11:08;;;;;;;0.00;0.00;;;17.00;81.70;;;;;;5093103;28;20426;-84
2022/04/26 15:19:01;;;;;;;0.00;0.00;;;16.20;83.00;;;;;;5060370;28;20532;-84
2022/04/26 15:21:27;;;;;;;0.00;0.00;;;16.00;85.90;;;;;;5065675;28;20453;-84
2022/04/26 15:23:56;;;;;;;0.00;0.00;;;15.90;85.40;;;;;;5063844;28;20275;-84
2022/04/26 15:26:23;;;;;;;0.00;0.00;;;15.90;89.40;;;;;;5060769;28;20190;-83
2022/04/26 15:28:48;;;;;;;0.00;0.00;;;15.80;89.10;;;;;;5063234;28;20465;-83
2022/04/26 15:31:18;;;;;;;0.00;0.00;;;15.70;88.00;;;;;;5065761;28;21026;-83
2022/04/26 15:33:46;;;;;;;0.00;0.00;;;15.60;89.80;;;;;;5067920;28;20197;-83
2022/04/26 15:36:13;;;;;;;0.00;0.00;;;15.70;85.60;;;;;;5066493;28;20518;-83
2022/04/26 15:38:39;;;;;;;0.00;0.00;;;15.90;87.90;;;;;;5064962;28;20487;-83
2022/04/26 15:41:05;;;;;;;0.00;0.00;;;15.70;85.20;;;;;;5070718;28;20444;-84
2022/04/26 15:43:35;;;;;;;0.00;0.00;;;15.80;87.70;;;;;;5071241;28;20471;-84
2022/04/26 15:46:10;;;;;;;0.00;0.00;;;15.90;87.70;;;;;;5070992;28;20943;-84
2022/04/26 15:48:44;;;;;;;0.00;0.00;;;16.00;90.60;;;;;;5071417;28;20450;-85
2022/04/26 15:51:10;;;;;;;0.00;0.00;;;15.90;88.90;;;;;;5068966;28;20440;-84
2022/04/26 15:53:36;;;;;;;0.00;0.00;;;15.90;90.20;;;;;;5051443;28;20460;-84
2022/04/26 15:56:02;;;;;;;0.00;0.00;;;15.70;86.80;;;;;;5065216;28;20982;-84
2022/04/26 15:58:27;;;;;;;0.00;0.00;;;15.70;90.90;;;;;;5070292;28;20194;-84
2022/04/26 16:00:55;;;;;;;0.00;0.00;;;15.50;89.00;;;;;;5065921;28;20239;-84
2022/04/26 16:03:21;;;;;;;0.00;0.00;;;15.50;90.00;;;;;;5069833;28;20684;-85
2022/04/26 16:05:47;;;;;;;0.00;0.00;;;15.40;90.30;;;;;;5070195;28;21057;-84
2022/04/26 16:08:13;;;;;;;0.00;0.00;;;15.40;90.50;;;;;;5072838;28;20811;-83
2022/04/26 16:21:36;;;;;;;0.00;0.00;;;15.00;92.30;;;;;;5066423;28;21006;-83
2022/04/26 16:24:02;;;;;;;0.00;0.00;;;14.80;93.20;;;;;;5067346;28;20498;-84
2022/04/26 16:26:28;;;;;;;0.00;0.00;;;14.80;93.70;;;;;;5064833;28;21231;-83
2022/04/26 16:28:54;;;;;;;0.00;0.00;;;14.90;93.50;;;;;;5066152;28;20190;-80
2022/04/26 16:31:27;;;;;;;0.00;0.00;;;14.90;94.60;;;;;;5066232;28;20190;-81
2022/04/26 16:33:57;;;;;;;0.00;0.00;;;14.80;93.70;;;;;;5066111;28;20489;-81
2022/04/26 16:36:24;;;;;;;0.00;0.00;;;14.80;93.30;;;;;;5063204;28;20524;-80
2022/04/26 16:38:50;;;;;;;0.03;0.03;;;14.60;93.90;;;;;;5064106;28;20963;-81
2022/04/26 16:41:16;;;;;;;0.00;0.00;;;14.60;93.30;;;;;;5062301;28;20501;-81
2022/04/26 16:43:43;;;;;;;0.00;0.00;;;14.50;94.50;;;;;;5066885;28;20467;-80
2022/04/26 16:46:11;;;;;;;0.03;0.03;;;14.40;93.40;;;;;;5053549;28;20210;-80
2022/04/26 16:48:36;;;;;;;0.00;0.00;;;14.50;94.40;;;;;;5063970;28;20448;-80
2022/04/26 16:51:02;;;;;;;0.00;0.00;;;14.40;94.20;;;;;;5060400;28;20774;-80
2022/04/26 16:53:27;;;;;;;0.00;0.00;;;14.40;93.80;;;;;;5059125;28;20232;-80
2022/04/26 16:55:55;;;;;;;0.00;0.00;;;14.30;93.80;;;;;;5064089;28;20181;-80
2022/04/26 16:58:21;;;;;;;0.07;0.07;;;14.30;93.70;;;;;;5064011;28;20558;-82
2022/04/26 17:00:48;;;;;;;0.00;0.00;;;14.30;94.70;;;;;;5066265;28;20492;-85
2022/04/26 17:03:15;;;;;;;0.00;0.00;;;14.20;94.80;;;;;;5065843;28;20530;-84
2022/04/26 17:05:46;;;;;;;0.00;0.00;;;14.20;94.50;;;;;;5065955;28;20975;-82
2022/04/26 17:08:17;;;;;;;0.00;0.00;;;14.10;95.00;;;;;;5064286;28;20436;-85
2022/04/26 17:10:43;;;;;;;0.00;0.00;;;14.00;95.60;;;;;;5067285;28;20448;-82
2022/04/26 17:13:09;;;;;;;0.00;0.00;;;14.00;96.70;;;;;;5065595;28;20944;-84
2022/04/26 17:15:36;;;;;;;0.00;0.00;;;14.00;95.20;;;;;;5069282;28;20501;-86
2022/04/26 17:18:02;;;;;;;0.00;0.00;;;14.00;95.40;;;;;;5068472;28;20432;-83
2022/04/26 17:20:32;;;;;;;0.07;0.07;;;14.00;96.40;;;;;;5081991;28;20444;-85